createdAt,value
2018-12-19T00:02:13.220Z,26.23
2018-12-19T00:04:40.791Z,22.00
2018-12-19T00:07:08.468Z,19.10
2018-12-19T00:09:36.072Z,16.23
2018-12-19T00:12:04.130Z,20.70
2018-12-19T00:14:31.852Z,17.40
2018-12-19T00:16:59.522Z,18.83
2018-12-19T00:19:27.159Z,21.40
2018-12-19T00:21:55.206Z,35.57
2018-12-19T00:24:23.131Z,20.57
2018-12-19T00:26:51.069Z,22.93
2018-12-19T00:29:18.743Z,21.50
2018-12-19T00:31:46.374Z,23.63
2018-12-19T00:34:13.969Z,19.33
2018-12-19T00:36:41.787Z,22.60
2018-12-19T00:39:09.837Z,17.87
2018-12-19T00:41:38.119Z,30.07
2018-12-19T00:44:05.790Z,19.30
2018-12-19T00:46:34.564Z,25.30
2018-12-19T00:49:02.481Z,38.23
2018-12-19T00:51:31.195Z,22.73
2018-12-19T00:53:59.055Z,23.00
2018-12-19T00:56:26.991Z,14.43
2018-12-19T00:58:54.888Z,31.13
2018-12-19T01:01:22.756Z,16.60
2018-12-19T01:03:52.079Z,23.23
2018-12-19T01:06:20.018Z,23.93
2018-12-19T01:08:47.702Z,25.20
2018-12-19T01:11:16.488Z,27.20
2018-12-19T01:13:44.274Z,21.00
2018-12-19T01:16:12.004Z,12.57
2018-12-19T01:18:39.642Z,18.10
2018-12-19T01:21:07.301Z,12.67
2018-12-19T01:23:34.975Z,20.97
2018-12-19T01:26:02.702Z,23.37
2018-12-19T01:28:30.298Z,18.03
2018-12-19T01:30:57.951Z,16.73
2018-12-19T01:33:25.538Z,18.07
2018-12-19T01:35:53.180Z,16.90
2018-12-19T01:38:21.134Z,14.13
2018-12-19T01:40:48.745Z,11.70
2018-12-19T01:43:16.330Z,14.37
2018-12-19T01:45:43.994Z,11.07
2018-12-19T01:48:12.620Z,12.77
2018-12-19T01:50:40.325Z,9.83
2018-12-19T01:53:08.031Z,9.33
2018-12-19T01:55:37.179Z,8.37
2018-12-19T01:58:05.667Z,9.17
2018-12-19T02:00:34.429Z,11.90
2018-12-19T02:03:02.478Z,14.00
2018-12-19T02:05:30.313Z,8.57
2018-12-19T02:07:58.768Z,9.83
2018-12-19T02:10:26.694Z,15.97
2018-12-19T02:12:54.514Z,13.33
2018-12-19T02:15:22.427Z,11.53
2018-12-19T02:17:50.373Z,11.90
2018-12-19T02:20:18.403Z,14.30
2018-12-19T02:22:46.304Z,14.20
2018-12-19T02:25:14.215Z,10.03
2018-12-19T02:27:42.060Z,11.80
2018-12-19T02:30:10.633Z,8.60
2018-12-19T02:32:38.501Z,7.80
2018-12-19T02:35:06.316Z,8.63
2018-12-19T02:37:34.127Z,5.80
2018-12-19T02:40:02.303Z,9.47
2018-12-19T02:42:30.059Z,5.80
2018-12-19T02:44:57.820Z,9.90
2018-12-19T02:47:26.121Z,6.83
2018-12-19T02:49:54.176Z,9.77
2018-12-19T02:52:22.036Z,15.10
2018-12-19T02:54:49.799Z,31.53
2018-12-19T02:57:17.551Z,12.13
2018-12-19T02:59:45.508Z,17.60
2018-12-19T03:02:14.699Z,14.63
2018-12-19T03:04:42.659Z,14.23
2018-12-19T03:07:10.618Z,14.30
2018-12-19T03:09:42.924Z,16.07
2018-12-19T03:12:08.003Z,12.67
2018-12-19T03:14:35.788Z,8.63
2018-12-19T03:17:03.625Z,11.20
2018-12-19T03:19:31.384Z,9.63
2018-12-19T03:21:59.267Z,13.23
2018-12-19T03:24:27.134Z,11.90
2018-12-19T03:26:54.791Z,9.50
2018-12-19T03:29:22.631Z,6.67
2018-12-19T03:31:50.452Z,9.00
2018-12-19T03:34:18.267Z,16.20
2018-12-19T03:36:46.133Z,6.47
2018-12-19T03:39:14.031Z,20.97
2018-12-19T03:41:42.185Z,8.23
2018-12-19T03:44:10.058Z,6.40
2018-12-19T03:46:38.100Z,8.47
2018-12-19T03:49:06.063Z,6.50
2018-12-19T03:51:34.183Z,5.13
2018-12-19T03:54:01.962Z,9.60
2018-12-19T03:56:30.224Z,5.57
2018-12-19T03:58:58.142Z,7.00
2018-12-19T04:01:25.902Z,7.57
2018-12-19T04:03:54.218Z,7.30
2018-12-19T04:06:22.564Z,8.53
2018-12-19T04:08:50.453Z,6.30
2018-12-19T04:11:18.142Z,5.20
2018-12-19T04:13:46.111Z,5.43
2018-12-19T04:16:14.152Z,3.97
2018-12-19T04:18:42.365Z,7.27
2018-12-19T04:21:10.434Z,6.23
2018-12-19T04:23:38.255Z,4.83
2018-12-19T04:26:06.126Z,15.43
2018-12-19T04:28:33.946Z,4.67
2018-12-19T04:31:01.869Z,6.67
2018-12-19T04:33:29.986Z,4.20
2018-12-19T04:35:58.712Z,5.00
2018-12-19T04:38:27.163Z,13.20
2018-12-19T04:40:54.830Z,21.00
2018-12-19T04:43:22.493Z,11.13
2018-12-19T04:45:50.437Z,5.80
2018-12-19T04:48:18.435Z,5.37
2018-12-19T04:50:46.383Z,5.70
2018-12-19T04:53:14.684Z,5.30
2018-12-19T04:55:42.724Z,4.43
2018-12-19T04:58:10.695Z,5.87
2018-12-19T05:00:38.560Z,3.40
2018-12-19T05:03:06.333Z,3.03
2018-12-19T05:05:34.210Z,4.70
2018-12-19T05:08:02.089Z,7.80
2018-12-19T05:10:29.932Z,4.73
2018-12-19T05:12:57.516Z,5.30
2018-12-19T05:15:25.174Z,3.20
2018-12-19T05:17:52.809Z,5.33
2018-12-19T05:20:20.462Z,3.90
2018-12-19T05:22:48.221Z,2.37
2018-12-19T05:25:16.010Z,3.53
2018-12-19T05:27:43.938Z,2.30
2018-12-19T05:30:12.904Z,6.87
2018-12-19T05:32:40.577Z,3.27
2018-12-19T05:35:08.263Z,3.17
2018-12-19T05:37:35.952Z,6.77
2018-12-19T05:40:05.385Z,4.27
2018-12-19T05:42:33.015Z,6.57
2018-12-19T05:45:00.672Z,4.30
2018-12-19T05:47:28.346Z,9.53
2018-12-19T05:49:56.441Z,5.57
2018-12-19T05:52:25.810Z,7.43
2018-12-19T05:54:53.704Z,4.73
2018-12-19T05:57:21.810Z,11.47
2018-12-19T05:59:49.567Z,8.50
2018-12-19T06:02:17.220Z,9.07
2018-12-19T06:04:44.841Z,6.93
2018-12-19T06:07:12.566Z,4.93
2018-12-19T06:09:40.236Z,4.07
2018-12-19T06:12:08.005Z,7.47
2018-12-19T06:14:35.668Z,10.10
2018-12-19T06:17:04.411Z,7.10
2018-12-19T06:19:32.166Z,7.73
2018-12-19T06:21:59.841Z,5.87
2018-12-19T06:24:27.506Z,11.53
2018-12-19T06:26:55.198Z,5.73
2018-12-19T06:29:22.863Z,28.03
2018-12-19T06:31:50.465Z,12.30
2018-12-19T06:34:18.045Z,13.50
2018-12-19T06:36:45.712Z,11.33
2018-12-19T06:39:13.308Z,45.60
2018-12-19T06:41:40.918Z,32.80
2018-12-19T06:44:08.617Z,17.10
2018-12-19T06:46:36.578Z,19.60
2018-12-19T06:49:04.406Z,11.93
2018-12-19T06:51:32.108Z,27.90
2018-12-19T06:53:59.743Z,20.97
2018-12-19T06:56:32.638Z,26.00
2018-12-19T06:59:15.932Z,10.87
2018-12-19T07:01:43.758Z,12.30
2018-12-19T07:04:11.439Z,22.20
2018-12-19T07:06:39.316Z,19.53
2018-12-19T07:09:07.558Z,18.47
2018-12-19T07:11:35.425Z,21.40
2018-12-19T07:14:03.206Z,29.07
2018-12-19T07:16:30.876Z,24.07
2018-12-19T07:18:58.749Z,26.97
2018-12-19T07:21:26.720Z,18.73
2018-12-19T07:23:54.335Z,29.83
2018-12-19T07:26:22.067Z,33.03
2018-12-19T07:28:51.188Z,17.13
2018-12-19T07:31:18.962Z,28.43
2018-12-19T07:33:46.632Z,14.70
2018-12-19T07:36:14.267Z,33.07
2018-12-19T07:38:42.728Z,22.40
2018-12-19T07:41:10.545Z,18.13
2018-12-19T07:43:38.241Z,22.50
2018-12-19T07:46:05.895Z,27.57
2018-12-19T07:48:33.879Z,29.87
2018-12-19T07:51:02.220Z,30.60
2018-12-19T07:53:30.128Z,22.93
2018-12-19T07:55:58.661Z,24.33
2018-12-19T07:58:26.943Z,26.23
2018-12-19T08:00:54.700Z,21.80
2018-12-19T08:03:22.375Z,18.93
2018-12-19T08:05:50.035Z,18.17
2018-12-19T08:08:17.687Z,15.93
2018-12-19T08:10:51.935Z,14.53
2018-12-19T08:13:15.481Z,31.47
2018-12-19T08:15:43.092Z,49.23
2018-12-19T08:18:10.861Z,52.93
2018-12-19T08:20:40.205Z,50.57
2018-12-19T08:23:08.060Z,39.93
2018-12-19T08:25:35.741Z,54.60
2018-12-19T08:28:03.397Z,81.07
2018-12-19T08:30:31.155Z,49.60
2018-12-19T08:32:58.933Z,39.03
2018-12-19T08:35:26.522Z,46.83
2018-12-19T08:37:54.252Z,60.60
2018-12-19T08:40:22.131Z,55.33
2018-12-19T08:42:49.782Z,71.97
2018-12-19T08:45:17.766Z,61.97
2018-12-19T08:47:46.522Z,56.50
2018-12-19T08:50:14.486Z,39.20
2018-12-19T08:52:42.283Z,30.00
2018-12-19T08:55:10.000Z,27.03
2018-12-19T08:57:37.610Z,36.90
2018-12-19T09:00:08.643Z,33.87
2018-12-19T09:02:36.526Z,33.67
2018-12-19T09:05:05.090Z,30.93
2018-12-19T09:07:32.813Z,28.40
2018-12-19T09:10:00.525Z,28.57
2018-12-19T09:12:28.389Z,24.07
2018-12-19T09:14:57.587Z,22.00
2018-12-19T09:17:25.878Z,28.80
2018-12-19T09:19:54.433Z,25.87
2018-12-19T09:22:22.420Z,29.87
2018-12-19T09:24:50.036Z,30.77
2018-12-19T09:27:17.714Z,28.90
2018-12-19T09:29:45.596Z,27.60
2018-12-19T09:32:13.382Z,25.83
2018-12-19T09:34:40.965Z,22.73
2018-12-19T09:37:09.501Z,15.77
2018-12-19T09:39:37.112Z,12.40
2018-12-19T09:42:05.616Z,14.00
2018-12-19T09:44:33.286Z,10.47
2018-12-19T09:47:00.940Z,23.27
2018-12-19T09:49:29.316Z,14.73
2018-12-19T09:51:58.301Z,15.63
2018-12-19T09:54:25.992Z,21.10
2018-12-19T09:56:53.709Z,16.40
2018-12-19T09:59:21.365Z,19.80
2018-12-19T10:01:48.978Z,17.50
2018-12-19T10:04:16.619Z,15.70
2018-12-19T10:06:44.207Z,19.20
2018-12-19T10:09:15.050Z,14.83
2018-12-19T10:11:41.590Z,13.30
2018-12-19T10:14:09.205Z,32.37
2018-12-19T10:16:36.882Z,26.23
2018-12-19T10:19:04.545Z,17.20
2018-12-19T10:21:32.441Z,17.87
2018-12-19T10:24:00.087Z,23.03
2018-12-19T10:26:27.882Z,26.13
2018-12-19T10:28:55.645Z,19.13
2018-12-19T10:31:23.563Z,26.40
2018-12-19T10:33:51.144Z,19.40
2018-12-19T10:36:20.883Z,18.73
2018-12-19T10:38:48.457Z,21.50
2018-12-19T10:41:16.142Z,16.77
2018-12-19T10:43:43.731Z,13.13
2018-12-19T10:46:11.526Z,23.07
2018-12-19T10:48:39.819Z,36.53
2018-12-19T10:51:07.664Z,14.80
2018-12-19T10:53:35.444Z,25.47
2018-12-19T10:56:03.208Z,21.20
2018-12-19T10:58:30.828Z,15.93
2018-12-19T11:01:00.383Z,18.20
2018-12-19T11:03:28.182Z,17.10
2018-12-19T11:05:55.782Z,28.87
2018-12-19T11:08:23.528Z,12.07
2018-12-19T11:10:51.142Z,17.03
2018-12-19T11:13:19.891Z,33.23
2018-12-19T11:15:47.496Z,14.63
2018-12-19T11:18:15.165Z,17.87
2018-12-19T11:20:42.817Z,17.60
2018-12-19T11:23:10.526Z,26.47
2018-12-19T11:25:38.107Z,16.53
2018-12-19T11:28:05.758Z,19.50
2018-12-19T11:33:06.334Z,7.83
2018-12-19T11:35:33.973Z,11.33
2018-12-19T11:38:01.706Z,8.80
2018-12-19T11:40:29.404Z,12.73
2018-12-19T11:42:58.018Z,12.60
2018-12-19T11:45:25.694Z,17.77
2018-12-19T11:47:53.348Z,10.77
2018-12-19T11:50:21.136Z,17.90
2018-12-19T11:52:48.954Z,9.57
2018-12-19T11:55:16.582Z,36.07
2018-12-19T11:57:44.236Z,28.53
2018-12-19T12:00:11.869Z,14.30
2018-12-19T12:02:39.641Z,11.90
2018-12-19T12:05:08.360Z,26.53
2018-12-19T12:07:36.475Z,12.10
2018-12-19T12:10:05.648Z,15.10
2018-12-19T12:12:33.633Z,10.80
2018-12-19T12:15:01.295Z,13.03
2018-12-19T12:17:28.879Z,11.40
2018-12-19T12:19:56.564Z,13.57
2018-12-19T12:22:25.058Z,11.73
2018-12-19T12:24:52.648Z,17.47
2018-12-19T12:27:20.434Z,13.00
2018-12-19T12:29:48.813Z,11.17
2018-12-19T12:32:16.582Z,7.60
2018-12-19T12:34:44.180Z,10.20
2018-12-19T12:37:13.230Z,14.03
2018-12-19T12:39:40.839Z,11.67
2018-12-19T12:42:08.566Z,35.90
2018-12-19T12:44:36.678Z,30.73
2018-12-19T12:47:05.283Z,21.73
2018-12-19T12:49:32.944Z,18.43
2018-12-19T12:52:00.642Z,23.63
2018-12-19T12:54:28.293Z,18.80
2018-12-19T12:56:56.012Z,32.90
2018-12-19T12:59:23.682Z,18.27
2018-12-19T13:01:52.526Z,25.57
2018-12-19T13:04:20.174Z,29.03
2018-12-19T13:06:47.895Z,17.10
2018-12-19T13:09:15.647Z,22.10
2018-12-19T13:11:43.940Z,23.93
2018-12-19T13:14:11.900Z,19.97
2018-12-19T13:16:39.731Z,20.73
2018-12-19T13:19:07.435Z,25.93
2018-12-19T13:21:35.134Z,16.53
2018-12-19T13:24:02.852Z,17.67
2018-12-19T13:26:30.588Z,14.47
2018-12-19T13:28:58.217Z,17.10
2018-12-19T13:31:25.838Z,15.70
2018-12-19T13:33:53.513Z,23.83
2018-12-19T13:36:21.218Z,21.00
2018-12-19T13:38:48.833Z,16.33
2018-12-19T13:41:16.547Z,13.17
2018-12-19T13:43:44.268Z,12.63
2018-12-19T13:46:12.080Z,20.80
2018-12-19T13:48:39.796Z,13.07
2018-12-19T13:51:07.515Z,20.70
2018-12-19T13:53:35.200Z,11.83
2018-12-19T13:56:02.929Z,13.10
2018-12-19T13:58:30.787Z,18.27
2018-12-19T14:00:58.538Z,16.27
2018-12-19T14:03:26.262Z,17.63
2018-12-19T14:05:53.945Z,12.77
2018-12-19T14:08:21.575Z,15.53
2018-12-19T14:10:49.252Z,17.70
2018-12-19T14:13:17.176Z,12.17
2018-12-19T14:15:44.921Z,10.60
2018-12-19T14:18:12.554Z,7.53
2018-12-19T14:20:40.257Z,15.57
2018-12-19T14:23:08.100Z,19.57
2018-12-19T14:25:35.829Z,16.53
2018-12-19T14:28:03.597Z,25.73
2018-12-19T14:30:32.276Z,16.10
2018-12-19T14:33:00.053Z,32.67
2018-12-19T14:35:27.744Z,27.17
2018-12-19T14:37:55.352Z,20.60
2018-12-19T14:40:23.079Z,21.40
2018-12-19T14:42:50.987Z,21.23
2018-12-19T14:45:18.658Z,11.40
2018-12-19T14:47:46.419Z,11.73
2018-12-19T14:50:14.272Z,14.20
2018-12-19T14:52:42.092Z,18.13
2018-12-19T14:55:09.776Z,30.57
2018-12-19T14:57:37.441Z,40.80
2018-12-19T15:00:08.621Z,25.00
2018-12-19T15:02:38.583Z,21.33
2018-12-19T15:05:07.082Z,32.23
2018-12-19T15:07:34.798Z,18.10
2018-12-19T15:10:02.641Z,15.10
2018-12-19T15:12:31.765Z,9.33
2018-12-19T15:14:59.962Z,16.50
2018-12-19T15:17:27.784Z,22.17
2018-12-19T15:19:55.601Z,20.47
2018-12-19T15:22:23.493Z,14.90
2018-12-19T15:24:51.263Z,9.10
2018-12-19T15:27:20.012Z,5.50
2018-12-19T15:29:47.771Z,7.90
2018-12-19T15:32:15.618Z,7.40
2018-12-19T15:34:44.253Z,7.93
2018-12-19T15:37:12.889Z,12.43
2018-12-19T15:39:40.772Z,13.60
2018-12-19T15:42:08.790Z,3.73
2018-12-19T15:44:37.199Z,21.50
2018-12-19T15:47:05.944Z,10.70
2018-12-19T15:49:33.874Z,7.60
2018-12-19T15:52:02.789Z,8.17
2018-12-19T15:54:31.507Z,7.10
2018-12-19T15:56:59.524Z,15.83
2018-12-19T15:59:28.232Z,19.40
2018-12-19T16:01:56.241Z,14.30
2018-12-19T16:04:23.909Z,10.17
2018-12-19T16:06:52.322Z,9.93
2018-12-19T16:09:20.494Z,10.00
2018-12-19T16:11:48.728Z,6.70
2018-12-19T16:14:16.493Z,6.53
2018-12-19T16:16:44.900Z,9.30
2018-12-19T16:19:12.744Z,9.33
2018-12-19T16:21:40.830Z,14.13
2018-12-19T16:24:08.512Z,15.00
2018-12-19T16:26:36.705Z,12.83
2018-12-19T16:29:06.270Z,14.57
2018-12-19T16:31:33.918Z,26.00
2018-12-19T16:34:01.651Z,26.70
2018-12-19T16:36:29.277Z,12.13
2018-12-19T16:38:56.997Z,21.27
2018-12-19T16:41:25.999Z,8.63
2018-12-19T16:43:53.747Z,11.13
2018-12-19T16:46:22.714Z,17.33
2018-12-19T16:48:50.557Z,20.32
2018-12-19T16:51:19.292Z,23.47
2018-12-19T16:53:47.876Z,19.47
2018-12-19T16:56:15.618Z,24.60
2018-12-19T16:58:43.765Z,24.70
2018-12-19T17:01:12.751Z,22.23
2018-12-19T17:03:41.656Z,25.93
2018-12-19T17:06:09.375Z,22.00
2018-12-19T17:08:37.173Z,30.60
2018-12-19T17:11:05.224Z,24.33
2018-12-19T17:13:33.306Z,24.53
2018-12-19T17:16:02.500Z,23.40
2018-12-19T17:18:31.281Z,16.13
2018-12-19T17:20:59.151Z,16.17
2018-12-19T17:23:27.135Z,18.97
2018-12-19T17:25:54.959Z,26.97
2018-12-19T17:28:22.668Z,22.00
2018-12-19T17:30:50.467Z,28.00
2018-12-19T17:33:18.634Z,23.00
2018-12-19T17:35:46.429Z,22.40
2018-12-19T17:38:16.155Z,38.40
2018-12-19T17:40:44.031Z,21.20
2018-12-19T17:43:13.164Z,25.23
2018-12-19T17:45:41.389Z,33.03
2018-12-19T17:48:09.270Z,33.67
2018-12-19T17:50:37.440Z,29.93
2018-12-19T17:53:06.364Z,28.10
2018-12-19T17:55:34.837Z,25.13
2018-12-19T17:58:03.110Z,23.23
2018-12-19T18:00:31.776Z,20.50
2018-12-19T18:02:59.772Z,30.63
2018-12-19T18:05:28.646Z,26.73
2018-12-19T18:07:56.554Z,20.10
2018-12-19T18:10:27.414Z,28.93
2018-12-19T18:12:56.395Z,25.93
2018-12-19T18:15:25.309Z,35.07
2018-12-19T18:17:54.029Z,31.60
2018-12-19T18:20:22.267Z,18.10
2018-12-19T18:22:50.478Z,23.00
2018-12-19T18:25:19.216Z,17.80
2018-12-19T18:27:48.050Z,14.90
2018-12-19T18:30:16.406Z,18.77
2018-12-19T18:32:45.321Z,26.40
2018-12-19T18:35:13.851Z,19.60
2018-12-19T18:37:43.007Z,22.60
2018-12-19T18:40:10.858Z,30.47
2018-12-19T18:42:39.002Z,26.57
2018-12-19T18:45:11.843Z,25.03
2018-12-19T18:47:37.751Z,24.27
2018-12-19T18:50:07.541Z,22.80
2018-12-19T18:52:36.590Z,20.47
2018-12-19T18:55:05.958Z,24.30
2018-12-19T18:57:33.840Z,27.30
2018-12-19T19:00:03.882Z,19.67
2018-12-19T19:02:32.663Z,29.93
2018-12-19T19:05:00.632Z,38.80
2018-12-19T19:07:28.988Z,19.10
2018-12-19T19:09:56.741Z,21.93
2018-12-19T19:12:24.579Z,20.07
2018-12-19T19:14:52.941Z,25.23
2018-12-19T19:17:23.416Z,26.33
2018-12-19T19:19:51.335Z,21.17
2018-12-19T19:22:20.143Z,18.50
2018-12-19T19:24:49.909Z,20.70
2018-12-19T19:27:20.730Z,19.33
2018-12-19T19:29:49.083Z,13.73
2018-12-19T19:32:17.052Z,16.80
2018-12-19T19:34:46.555Z,16.90
2018-12-19T19:37:14.441Z,17.17
2018-12-19T19:39:43.322Z,15.57
2018-12-19T19:44:57.928Z,14.83
2018-12-19T19:47:25.691Z,8.73
2018-12-19T19:49:54.454Z,16.90
2018-12-19T19:52:22.597Z,11.63
2018-12-19T19:54:52.616Z,11.73
2018-12-19T19:57:21.469Z,8.70
2018-12-19T19:59:49.628Z,6.10
2018-12-19T20:02:18.328Z,5.40
2018-12-19T20:04:47.880Z,6.73
2018-12-19T20:07:15.870Z,11.90
2018-12-19T20:09:47.719Z,12.27
2018-12-19T20:12:16.589Z,20.70
2018-12-19T20:14:52.412Z,36.20
2018-12-19T20:17:26.906Z,27.57
2018-12-19T20:19:55.021Z,116.80
2018-12-19T20:22:24.248Z,88.77
2018-12-19T20:24:52.645Z,66.50
2018-12-19T20:27:20.934Z,25.53
2018-12-19T20:29:48.744Z,20.93
2018-12-19T20:32:16.623Z,24.93
2018-12-19T20:34:44.944Z,22.53
2018-12-19T20:37:14.742Z,18.00
2018-12-19T20:39:42.503Z,29.17
2018-12-19T20:42:11.365Z,16.10
2018-12-19T20:44:40.370Z,21.73
2018-12-19T20:47:09.178Z,15.97
2018-12-19T20:49:36.950Z,15.80
2018-12-19T20:52:05.639Z,18.17
2018-12-19T20:54:34.867Z,15.47
2018-12-19T20:57:02.845Z,18.00
2018-12-19T20:59:30.751Z,18.63
2018-12-19T21:02:03.342Z,18.40
2018-12-19T21:04:31.344Z,14.13
2018-12-19T21:06:59.999Z,11.13
2018-12-19T21:09:27.677Z,20.97
2018-12-19T21:11:56.775Z,24.00
2018-12-19T21:14:24.497Z,19.03
2018-12-19T21:19:53.236Z,15.90
2018-12-19T21:22:21.105Z,18.67
2018-12-19T21:24:49.808Z,14.33
2018-12-19T21:27:17.531Z,12.73
2018-12-19T21:29:45.162Z,17.87
2018-12-19T21:32:12.878Z,13.30
2018-12-19T21:34:40.720Z,12.13
2018-12-19T21:37:09.520Z,16.43
2018-12-19T21:39:37.372Z,15.13
2018-12-19T21:42:06.048Z,23.73
2018-12-19T21:44:33.768Z,19.20
2018-12-19T21:47:01.513Z,26.80
2018-12-19T21:49:29.993Z,21.87
2018-12-19T21:51:57.706Z,20.00
2018-12-19T21:54:25.586Z,18.30
2018-12-19T21:56:53.358Z,10.87
2018-12-19T21:59:21.271Z,15.33
2018-12-19T22:01:49.077Z,12.07
2018-12-19T22:04:18.770Z,12.63
2018-12-19T22:06:46.385Z,16.20
2018-12-19T22:09:15.522Z,11.20
2018-12-19T22:11:43.494Z,22.73
2018-12-19T22:14:11.203Z,19.17
2018-12-19T22:16:44.824Z,17.07
2018-12-19T22:19:12.716Z,17.73
2018-12-19T22:21:40.539Z,12.43
2018-12-19T22:24:08.165Z,16.50
2018-12-19T22:26:35.966Z,16.10
2018-12-19T22:29:03.674Z,16.43
2018-12-19T22:31:31.576Z,11.17
2018-12-19T22:33:59.367Z,15.90
2018-12-19T22:36:27.225Z,15.63
2018-12-19T22:38:56.204Z,9.40
2018-12-19T22:41:24.971Z,6.17
2018-12-19T22:43:52.639Z,12.80
2018-12-19T22:46:20.357Z,18.13
2018-12-19T22:48:48.947Z,13.27
2018-12-19T22:51:17.506Z,12.70
2018-12-19T22:53:46.301Z,16.00
2018-12-19T22:56:14.069Z,15.03
2018-12-19T22:58:41.743Z,12.50
2018-12-19T23:01:15.056Z,15.57
2018-12-19T23:03:48.181Z,11.80
2018-12-19T23:06:15.951Z,12.80
2018-12-19T23:08:43.665Z,13.40
2018-12-19T23:11:12.494Z,13.60
2018-12-19T23:13:41.442Z,11.47
2018-12-19T23:16:09.068Z,14.80
2018-12-19T23:18:37.852Z,16.53
2018-12-19T23:21:05.875Z,13.70
2018-12-19T23:23:33.691Z,8.70
2018-12-19T23:26:01.583Z,14.43
2018-12-19T23:28:30.066Z,13.97
2018-12-19T23:30:57.954Z,9.50
2018-12-19T23:33:25.796Z,8.10
2018-12-19T23:35:53.682Z,14.03
2018-12-19T23:38:22.891Z,14.30
2018-12-19T23:40:50.654Z,13.70
2018-12-19T23:43:19.198Z,15.90
2018-12-19T23:45:46.771Z,13.00
2018-12-19T23:48:14.629Z,12.43
2018-12-19T23:50:43.042Z,17.10
2018-12-19T23:53:11.786Z,11.00
2018-12-19T23:55:39.562Z,14.80
2018-12-19T23:58:07.413Z,10.80
